• Join FlightAware (Why Join?)
  • Login
  • US Flag 
05:06PM EDT


 

Airport Tracker/Info


-or-


 

Live Flight TrackerFlight Track Log ✈ G52668 ✈ 23-Nov-2013 ✈ ZSFZ / FOC - ZSLG / LYG

Flight Track Log - Related Links

Times and Time Zones

All times are in EST time to prevent confusion due to time zone crossing. See the G52668 flight status page for this flight to view local times or setup timezone preferences in your user account.

Time Position Orientation Groundspeed Altitude Reporting Facility
EST Latitude Longitude Course Direction KTS MPH feet Rate Location/Type
11:29PM 27.1542 119.5598 356° North  Level Estimated
11:30PM 27.2558 119.5510 356° North  Level Estimated
11:31PM 27.3573 119.5423 356° North  Level Estimated
11:32PM 27.4589 119.5335 356° North  Level Estimated
11:33PM 27.5605 119.5248 356° North  Level Estimated
11:34PM 27.6621 119.5160 356° North  Level Estimated
11:35PM 27.7637 119.5072 356° North  Level Estimated
11:36PM 27.8653 119.4983 356° North  Level Estimated
11:37PM 27.9669 119.4895 356° North  Level Estimated
11:38PM 28.0684 119.4806 356° North  Level Estimated
11:39PM 28.1700 119.4718 356° North  Level Estimated
11:40PM 28.2716 119.4629 356° North  Level Estimated
11:41PM 28.3732 119.4540 356° North  Level Estimated
11:42PM 28.4748 119.4451 356° North  Level Estimated
11:43PM 28.5763 119.4361 356° North  Level Estimated
11:44PM 28.6779 119.4271 356° North  Level Estimated
11:45PM 28.7795 119.4182 356° North  Level Estimated
11:46PM 28.8811 119.4092 356° North  Level Estimated
11:47PM 28.9827 119.4002 356° North  Level Estimated
11:48PM 29.0842 119.3911 356° North  Level Estimated
11:49PM 29.1858 119.3821 356° North  Level Estimated
11:50PM 29.2874 119.3730 356° North  Level Estimated
11:51PM 29.3890 119.3639 356° North  Level Estimated
11:52PM 29.4906 119.3548 356° North  Level Estimated
11:53PM 29.5921 119.3457 356° North  Level Estimated
11:54PM 29.6937 119.3366 356° North  Level Estimated
11:55PM 29.7953 119.3274 356° North  Level Estimated
11:56PM 29.8968 119.3182 356° North  Level Estimated
11:57PM 29.9984 119.3091 356° North  Level Estimated
11:58PM 30.1000 119.2998 356° North  Level Estimated
11:59PM 30.2015 119.2906 356° North  Level Estimated
12:00AM 30.3031 119.2814 356° North  Level Estimated
12:01AM 30.4047 119.2721 355° North  Level Estimated
12:02AM 30.5063 119.2628 355° North  Level Estimated
12:03AM 30.6078 119.2535 355° North  Level Estimated
12:04AM 30.7094 119.2442 355° North  Level Estimated
12:05AM 30.8110 119.2348 355° North  Level Estimated
12:06AM 30.9125 119.2254 355° North  Level Estimated
12:07AM 31.0141 119.2160 355° North  Level Estimated
12:08AM 31.1157 119.2066 355° North  Level Estimated
12:09AM 31.2172 119.1972 355° North  Level Estimated
12:10AM 31.3188 119.1878 355° North  Level Estimated
12:11AM 31.4203 119.1783 355° North  Level Estimated
12:12AM 31.5219 119.1688 355° North  Level Estimated
12:13AM 31.6235 119.1593 355° North  Level Estimated
12:14AM 31.7250 119.1498 355° North  Level Estimated
12:15AM 31.8266 119.1402 355° North  Level Estimated
12:16AM 31.9282 119.1306 355° North  Level Estimated
12:17AM 32.0297 119.1210 355° North  Level Estimated
12:18AM 32.1313 119.1114 355° North  Level Estimated
12:19AM 32.2328 119.1018 355° North  Level Estimated
12:20AM 32.3344 119.0921 355° North  Level Estimated
12:21AM 32.4360 119.0825 355° North  Level Estimated
12:22AM 32.5375 119.0728 355° North  Level Estimated
12:23AM 32.6390 119.0630 355° North  Level Estimated
12:24AM 32.7406 119.0533 355° North  Level Estimated
12:25AM 32.8422 119.0435 355° North  Level Estimated
12:26AM 32.9437 119.0337 355° North  Level Estimated
12:27AM 33.0452 119.0239 355° North  Level Estimated
12:28AM 33.1468 119.0141 355° North  Level Estimated
12:29AM 33.2483 119.0042 355° North  Level Estimated
12:30AM 33.3499 118.9943 355° North  Level Estimated
12:31AM 33.4515 118.9845 355° North  Level Estimated
12:32AM 33.5530 118.9745 355° North  Level Estimated
12:33AM 33.6545 118.9646 355° North  Level Estimated
12:34AM 33.7561 118.9546 355° North  Level Estimated
12:35AM 33.8576 118.9446 355° North  Level Estimated
12:36AM 33.9592 118.9346 355° North  Level Estimated
12:37AM 34.0607 118.9245 355° North  Level Estimated
12:38AM 34.1623 118.9145 355° North  Level Estimated
12:39AM 34.2638 118.9044 355° North  Level Estimated
12:40AM 34.3653 118.8942 355° North  Level Estimated
12:41AM 34.4669 118.8841 355° North  Level Estimated
12:42AM 34.5684 118.8739 355° North  Level Estimated
12:43AM 34.5717 118.8736 355° North  Level Estimated
12:44AM 34.5717 118.8736 165° South  Level Estimated
12:45AM 34.5717 118.8736 165° South  Level Estimated
12:46AM 34.5717 118.8736 165° South  Level Estimated
12:47AM 34.5717 118.8736 165° South  Level Estimated
12:48AM 34.5717 118.8736 165° South  Level Estimated
12:49AM 34.5717 118.8736 165° South  Level Estimated
12:50AM 34.5717 118.8736 165° South  Level Estimated
12:51AM 34.5717 118.8736 165° South  Level Estimated
12:52AM 34.5717 118.8736 165° South  Level Estimated
12:53AM 34.5717 118.8736 165° South  Level Estimated
12:54AM 34.5717 118.8736 165° South  Level Estimated
12:55AM 34.5717 118.8736 165° South  Level Estimated
12:56AM 34.5717 118.8736 165° South  Level Estimated
12:57AM 34.5717 118.8736 165° South  Level Estimated
12:58AM 34.5717 118.8736 165° South  Level Estimated